BLM weather

Bahia De Los Angelos South
Baja California, Mexico

Public forecast

Using degrees Celsius for public forecast. Weather courtesy of forecast.io.

METAR (pilot weather report)

Closest report is General Ignacio P. Garcia International Airport, 130.8 nm (242.3 km) E. Retrieved 2019/05/21 01:42 UTC (38 minutes ago):

MMHO 210142Z 28006KT 10SM BKN200 25/M01 A2985 RMK 8/008 HZY

TAF (pilot weather forecast)

Forecast is more than 6 hours old.

Closest forecast is General Ignacio P. Garcia International Airport, 130.8 nm (242.3 km) E. Retrieved 2019/05/20 18:54 UTC (7 hours ago):

TAF MMHO 201649Z 2018/2118 26015KT P6SM SCT100 BKN200 FM210300 24010KT P6SM BKN200